createdAt,value
2023-03-05T00:01:24.510Z,101581.34
2023-03-05T00:03:53.635Z,101579.00
2023-03-05T00:06:22.661Z,101582.44
2023-03-05T00:08:51.560Z,101579.94
2023-03-05T00:11:19.058Z,101585.34
2023-03-05T00:13:46.267Z,101577.47
2023-03-05T00:16:15.626Z,101586.38
2023-03-05T00:18:43.503Z,101579.50
2023-03-05T00:21:30.754Z,101578.66
2023-03-05T00:23:59.051Z,101580.00
2023-03-05T00:26:27.468Z,101573.97
2023-03-05T00:28:56.142Z,101573.34
2023-03-05T00:31:30.584Z,101571.69
2023-03-05T00:34:04.155Z,101572.94
2023-03-05T00:36:31.279Z,101566.84
2023-03-05T00:38:59.060Z,101567.00
2023-03-05T00:41:26.144Z,101576.00
2023-03-05T00:43:53.422Z,101569.06
2023-03-05T00:46:20.367Z,101579.84
2023-03-05T00:48:47.364Z,101576.47
2023-03-05T00:51:14.458Z,101582.16
2023-03-05T00:53:41.609Z,101589.38
2023-03-05T00:56:08.681Z,101586.09
2023-03-05T00:58:35.661Z,101589.84
2023-03-05T01:01:03.883Z,101579.53
2023-03-05T01:03:32.358Z,101580.63
2023-03-05T01:06:00.671Z,101576.22
2023-03-05T01:08:27.897Z,101576.41
2023-03-05T01:10:55.234Z,101575.59
2023-03-05T01:13:22.614Z,101570.28
2023-03-05T01:15:51.153Z,101562.47
2023-03-05T01:18:19.721Z,101563.63
2023-03-05T01:20:47.575Z,101561.03
2023-03-05T01:23:14.927Z,101560.19
2023-03-05T01:25:41.950Z,101549.78
2023-03-05T01:28:09.045Z,101543.53
2023-03-05T01:30:36.356Z,101543.53
2023-03-05T01:33:03.798Z,101542.78
2023-03-05T01:35:30.823Z,101540.25
2023-03-05T01:37:57.877Z,101534.31
2023-03-05T01:40:27.582Z,101536.19
2023-03-05T01:43:01.688Z,101540.72
2023-03-05T01:45:32.534Z,101532.13
2023-03-05T01:48:00.329Z,101534.94
2023-03-05T01:50:29.282Z,101530.56
2023-03-05T01:53:03.282Z,101528.81
2023-03-05T01:55:33.102Z,101522.75
2023-03-05T01:58:05.199Z,101527.31
2023-03-05T02:00:40.335Z,101523.91
2023-03-05T02:03:10.881Z,101511.50
2023-03-05T02:05:39.777Z,101512.47
2023-03-05T02:08:10.127Z,101495.69
2023-03-05T02:10:40.515Z,101502.88
2023-03-05T02:13:10.699Z,101496.00
2023-03-05T02:15:41.066Z,101498.03
2023-03-05T02:18:08.760Z,101491.00
2023-03-05T02:20:52.998Z,101485.69
2023-03-05T02:23:22.723Z,101475.50
2023-03-05T02:25:49.703Z,101468.63
2023-03-05T02:28:40.871Z,101468.94
2023-03-05T02:31:17.472Z,101458.75
2023-03-05T02:33:45.748Z,101453.75
2023-03-05T02:36:15.409Z,101461.06
2023-03-05T02:38:44.307Z,101452.47
2023-03-05T02:41:11.773Z,101450.81
2023-03-05T02:43:39.140Z,101450.94
2023-03-05T02:46:12.462Z,101449.31
2023-03-05T02:48:39.782Z,101437.84
2023-03-05T02:51:08.641Z,101439.84
2023-03-05T02:53:35.977Z,101440.00
2023-03-05T02:56:06.080Z,101439.28
2023-03-05T02:58:35.140Z,101435.03
2023-03-05T03:01:02.297Z,101430.63
2023-03-05T03:03:29.522Z,101435.16
2023-03-05T03:05:56.522Z,101430.00
2023-03-05T03:08:23.506Z,101432.66
2023-03-05T03:10:50.468Z,101428.50
2023-03-05T03:13:17.477Z,101438.25
2023-03-05T03:15:44.786Z,101436.59
2023-03-05T03:18:11.803Z,101430.41
2023-03-05T03:20:39.341Z,101431.50
2023-03-05T03:23:07.223Z,101422.91
2023-03-05T03:25:34.386Z,101421.91
2023-03-05T03:28:01.362Z,101419.31
2023-03-05T03:30:28.296Z,101410.44
2023-03-05T03:32:55.188Z,101403.41
2023-03-05T03:35:22.242Z,101410.44
2023-03-05T03:37:49.176Z,101412.28
2023-03-05T03:40:16.404Z,101413.75
2023-03-05T03:42:43.325Z,101411.00
2023-03-05T03:45:10.677Z,101409.31
2023-03-05T03:47:37.598Z,101406.13
2023-03-05T03:50:05.463Z,101412.22
2023-03-05T03:52:32.481Z,101409.56
2023-03-05T03:55:02.168Z,101413.16
2023-03-05T03:57:30.698Z,101406.00
2023-03-05T03:59:57.635Z,101407.03
2023-03-05T04:02:24.633Z,101405.25
2023-03-05T04:04:52.336Z,101409.84
2023-03-05T04:07:19.943Z,101411.56
2023-03-05T04:09:46.931Z,101408.25
2023-03-05T04:12:18.451Z,101410.00
2023-03-05T04:14:47.245Z,101407.34
2023-03-05T04:17:14.976Z,101412.75
2023-03-05T04:19:47.107Z,101415.56
2023-03-05T04:22:16.087Z,101420.81
2023-03-05T04:24:43.538Z,101413.84
2023-03-05T04:27:11.365Z,101417.50
2023-03-05T04:29:39.057Z,101414.91
2023-03-05T04:32:09.206Z,101419.41
2023-03-05T04:34:38.138Z,101417.69
2023-03-05T04:37:05.225Z,101410.69
2023-03-05T04:39:32.227Z,101410.72
2023-03-05T04:41:59.174Z,101416.13
2023-03-05T04:44:26.280Z,101405.53
2023-03-05T04:46:53.171Z,101405.53
2023-03-05T04:49:20.090Z,101402.88
2023-03-05T04:51:47.125Z,101398.50
2023-03-05T04:54:14.042Z,101397.59
2023-03-05T04:56:40.928Z,101399.38
2023-03-05T04:59:08.043Z,101400.22
2023-03-05T05:01:35.594Z,101395.91
2023-03-05T05:04:02.635Z,101400.22
2023-03-05T05:06:29.545Z,101394.94
2023-03-05T05:08:56.576Z,101400.50
2023-03-05T05:11:23.622Z,101391.69
2023-03-05T05:13:50.622Z,101395.19
2023-03-05T05:16:17.781Z,101401.41
2023-03-05T05:18:45.053Z,101406.06
2023-03-05T05:21:14.639Z,101402.59
2023-03-05T05:23:42.619Z,101398.50
2023-03-05T05:26:14.322Z,101397.72
2023-03-05T05:28:43.738Z,101401.41
2023-03-05T05:31:14.186Z,101400.50
2023-03-05T05:33:42.013Z,101399.84
2023-03-05T05:36:12.305Z,101405.13
2023-03-05T05:38:41.422Z,101399.84
2023-03-05T05:41:13.879Z,101407.72
2023-03-05T05:43:41.066Z,101403.28
2023-03-05T05:46:12.379Z,101402.28
2023-03-05T05:48:39.646Z,101397.91
2023-03-05T05:51:08.804Z,101394.41
2023-03-05T05:53:36.758Z,101387.25
2023-03-05T05:56:07.873Z,101394.28
2023-03-05T05:58:35.277Z,101390.81
2023-03-05T06:01:02.603Z,101386.41
2023-03-05T06:03:29.584Z,101394.41
2023-03-05T06:05:56.989Z,101392.63
2023-03-05T06:08:23.938Z,101394.41
2023-03-05T06:10:55.701Z,101399.13
2023-03-05T06:13:22.696Z,101394.81
2023-03-05T06:16:00.599Z,101405.53
2023-03-05T06:18:28.217Z,101402.06
2023-03-05T06:20:59.831Z,101399.50
2023-03-05T06:23:27.993Z,101390.97
2023-03-05T06:25:56.564Z,101392.56
2023-03-05T06:28:26.879Z,101393.47
2023-03-05T06:31:31.073Z,101393.34
2023-03-05T06:34:04.236Z,101391.63
2023-03-05T06:36:31.637Z,101393.19
2023-03-05T06:38:59.185Z,101397.09
2023-03-05T06:41:47.782Z,101390.38
2023-03-05T06:44:14.761Z,101394.09
2023-03-05T06:46:41.672Z,101399.31
2023-03-05T06:49:09.690Z,101394.31
2023-03-05T06:51:40.225Z,101392.97
2023-03-05T06:54:14.269Z,101390.53
2023-03-05T06:56:46.201Z,101384.91
2023-03-05T06:59:16.811Z,101385.63
2023-03-05T07:01:46.989Z,101386.84
2023-03-05T07:04:16.225Z,101385.66
2023-03-05T07:06:43.804Z,101388.66
2023-03-05T07:09:15.000Z,101378.56
2023-03-05T07:11:42.351Z,101389.03
2023-03-05T07:14:09.345Z,101395.94
2023-03-05T07:16:36.447Z,101392.19
2023-03-05T07:19:05.715Z,101392.47
2023-03-05T07:21:34.116Z,101399.91
2023-03-05T07:24:02.900Z,101406.47
2023-03-05T07:26:31.074Z,101397.78
2023-03-05T07:28:58.063Z,101406.47
2023-03-05T07:31:32.477Z,101412.34
2023-03-05T07:34:01.113Z,101401.22
2023-03-05T07:36:28.578Z,101403.84
2023-03-05T07:38:55.657Z,101406.41
2023-03-05T07:41:23.860Z,101407.09
2023-03-05T07:43:53.133Z,101403.44
2023-03-05T07:46:22.901Z,101398.88
2023-03-05T07:48:50.345Z,101397.06
2023-03-05T07:51:20.145Z,101395.13
2023-03-05T07:53:48.688Z,101410.63
2023-03-05T07:56:25.009Z,101405.03
2023-03-05T07:58:52.928Z,101415.19
2023-03-05T08:01:19.958Z,101401.47
2023-03-05T08:03:48.440Z,101406.00
2023-03-05T08:06:15.477Z,101397.69
2023-03-05T08:08:42.348Z,101415.47
2023-03-05T08:11:22.026Z,101411.91
2023-03-05T08:13:49.642Z,101409.50
2023-03-05T08:16:21.825Z,101407.53
2023-03-05T08:18:49.065Z,101402.41
2023-03-05T08:21:23.728Z,101414.69
2023-03-05T08:23:50.752Z,101410.78
2023-03-05T08:26:20.679Z,101407.06
2023-03-05T08:28:48.354Z,101405.59
2023-03-05T08:31:17.986Z,101411.97
2023-03-05T08:33:45.089Z,101400.38
2023-03-05T08:36:11.981Z,101400.97
2023-03-05T08:38:39.440Z,101400.41
2023-03-05T08:41:06.479Z,101399.81
2023-03-05T08:43:33.464Z,101405.66
2023-03-05T08:46:01.890Z,101398.38
2023-03-05T08:48:29.828Z,101392.69
2023-03-05T08:50:56.721Z,101391.69
2023-03-05T08:53:23.970Z,101401.13
2023-03-05T08:55:58.313Z,101394.13
2023-03-05T08:58:25.501Z,101400.22
2023-03-05T09:00:52.672Z,101393.56
2023-03-05T09:03:19.979Z,101391.19
2023-03-05T09:05:46.925Z,101398.59
2023-03-05T09:08:14.266Z,101391.91
2023-03-05T09:10:42.863Z,101397.31
2023-03-05T09:13:10.426Z,101388.41
2023-03-05T09:15:38.113Z,101381.41
2023-03-05T09:18:05.321Z,101385.03
2023-03-05T09:20:33.402Z,101385.41
2023-03-05T09:23:00.330Z,101377.56
2023-03-05T09:25:27.407Z,101380.84
2023-03-05T09:27:54.822Z,101381.72
2023-03-05T09:30:21.921Z,101371.19
2023-03-05T09:32:49.075Z,101372.66
2023-03-05T09:35:16.062Z,101371.50
2023-03-05T09:37:43.041Z,101366.06
2023-03-05T09:40:16.221Z,101359.66
2023-03-05T09:43:01.395Z,101359.94
2023-03-05T09:45:36.744Z,101350.72
2023-03-05T09:48:38.966Z,101348.38
2023-03-05T09:51:06.116Z,101334.75
2023-03-05T09:53:47.946Z,101340.72
2023-03-05T09:56:25.908Z,101323.00
2023-03-05T09:58:56.563Z,101315.13
2023-03-05T10:01:50.633Z,101314.41
2023-03-05T10:04:44.698Z,101309.53
2023-03-05T10:07:20.908Z,101313.13
2023-03-05T10:09:53.567Z,101305.56
2023-03-05T10:12:42.408Z,101306.53
2023-03-05T10:15:14.231Z,101307.84
2023-03-05T10:18:10.720Z,101302.81
2023-03-05T10:20:49.380Z,101300.50
2023-03-05T10:23:37.962Z,101284.34
2023-03-05T10:26:05.024Z,101278.31
2023-03-05T10:28:37.505Z,101271.03
2023-03-05T10:31:37.352Z,101266.03
2023-03-05T10:34:25.550Z,101271.09
2023-03-05T10:37:01.565Z,101265.38
2023-03-05T10:39:40.638Z,101263.00
2023-03-05T10:42:13.544Z,101259.00
2023-03-05T10:44:46.805Z,101249.38
2023-03-05T10:47:28.507Z,101247.28
2023-03-05T10:49:58.368Z,101247.56
2023-03-05T10:52:30.279Z,101245.88
2023-03-05T10:54:57.197Z,101237.28
2023-03-05T10:57:31.339Z,101231.22
2023-03-05T11:00:07.909Z,101228.22
2023-03-05T11:02:54.098Z,101231.78
2023-03-05T11:05:49.103Z,101226.91
2023-03-05T11:08:34.812Z,101225.78
2023-03-05T11:11:27.203Z,101222.50
2023-03-05T11:14:03.990Z,101220.38
2023-03-05T11:16:33.860Z,101218.47
2023-03-05T11:19:35.540Z,101205.22
2023-03-05T11:22:16.173Z,101205.19
2023-03-05T11:24:46.860Z,101212.66
2023-03-05T11:27:25.925Z,101198.25
2023-03-05T11:29:53.201Z,101195.16
2023-03-05T11:32:26.821Z,101186.88
2023-03-05T11:34:57.639Z,101180.19
2023-03-05T11:37:27.855Z,101177.03
2023-03-05T11:40:25.056Z,101179.97
2023-03-05T11:42:56.828Z,101172.13
2023-03-05T11:45:26.219Z,101171.13
2023-03-05T11:47:56.252Z,101161.72
2023-03-05T11:50:27.869Z,101150.78
2023-03-05T11:52:59.189Z,101141.84
2023-03-05T11:55:36.552Z,101137.53
2023-03-05T11:58:27.692Z,101137.25
2023-03-05T12:00:55.383Z,101122.53
2023-03-05T12:03:31.947Z,101123.38
2023-03-05T12:06:40.984Z,101129.56
2023-03-05T12:09:18.553Z,101112.25
2023-03-05T12:11:47.794Z,101102.41
2023-03-05T12:14:30.203Z,101092.63
2023-03-05T12:17:14.177Z,101088.38
2023-03-05T12:19:47.085Z,101073.94
2023-03-05T12:22:37.613Z,101080.97
2023-03-05T12:25:26.052Z,101091.78
2023-03-05T12:27:53.012Z,101082.59
2023-03-05T12:30:34.788Z,101071.13
2023-03-05T12:33:08.714Z,101073.81
2023-03-05T12:35:39.740Z,101071.25
2023-03-05T12:38:28.294Z,101072.09
2023-03-05T12:41:20.882Z,101065.81
2023-03-05T12:44:07.901Z,101052.97
2023-03-05T12:46:44.752Z,101048.50
2023-03-05T12:49:21.410Z,101041.22
2023-03-05T12:51:51.116Z,101037.44
2023-03-05T12:54:33.983Z,101024.16
2023-03-05T12:57:28.791Z,101031.97
2023-03-05T13:00:06.289Z,101028.63
2023-03-05T13:02:46.022Z,101023.94
2023-03-05T13:05:25.527Z,101011.19
2023-03-05T13:07:52.678Z,101016.03
2023-03-05T13:10:29.694Z,101009.31
2023-03-05T13:12:58.676Z,101004.13
2023-03-05T13:15:26.517Z,100997.28
2023-03-05T13:18:07.615Z,100991.38
2023-03-05T13:20:39.155Z,100988.50
2023-03-05T13:23:18.458Z,100985.13
2023-03-05T13:25:55.740Z,100977.22
2023-03-05T13:28:22.794Z,100963.59
2023-03-05T13:30:56.721Z,100971.38
2023-03-05T13:33:35.640Z,100963.13
2023-03-05T13:36:04.535Z,100965.03
2023-03-05T13:38:45.271Z,100965.13
2023-03-05T13:41:12.090Z,100965.13
2023-03-05T13:43:49.341Z,100968.94
2023-03-05T13:46:27.367Z,100958.88
2023-03-05T13:48:55.060Z,100953.34
2023-03-05T13:51:21.902Z,100953.41
2023-03-05T13:53:49.553Z,100941.59
2023-03-05T13:56:21.595Z,100949.66
2023-03-05T13:58:52.805Z,100955.16
2023-03-05T14:01:31.486Z,100940.91
2023-03-05T14:04:09.065Z,100943.44
2023-03-05T14:06:42.238Z,100940.59
2023-03-05T14:09:20.873Z,100930.47
2023-03-05T14:11:58.403Z,100921.72
2023-03-05T14:14:27.368Z,100917.75
2023-03-05T14:16:54.527Z,100915.47
2023-03-05T14:19:37.218Z,100906.34
2023-03-05T14:22:06.320Z,100905.28
2023-03-05T14:24:34.126Z,100898.19
2023-03-05T14:27:08.893Z,100899.16
2023-03-05T14:29:36.436Z,100893.97
2023-03-05T14:32:08.602Z,100894.25
2023-03-05T14:34:38.195Z,100882.63
2023-03-05T14:37:19.356Z,100881.09
2023-03-05T14:40:00.868Z,100872.63
2023-03-05T14:42:58.778Z,100875.84
2023-03-05T14:45:27.307Z,100876.44
2023-03-05T14:47:55.911Z,100869.94
2023-03-05T14:50:32.194Z,100883.44
2023-03-05T14:53:07.011Z,100886.19
2023-03-05T14:55:35.640Z,100871.56
2023-03-05T14:58:07.215Z,100867.00
2023-03-05T15:00:34.392Z,100868.91
2023-03-05T15:03:01.418Z,100860.56
2023-03-05T15:05:28.497Z,100874.84
2023-03-05T15:07:55.716Z,100867.34
2023-03-05T15:10:25.136Z,100857.25
2023-03-05T15:12:53.366Z,100856.16
2023-03-05T15:15:22.592Z,100850.50
2023-03-05T15:17:56.125Z,100846.53
2023-03-05T15:20:28.213Z,100853.94
2023-03-05T15:22:55.446Z,100848.81
2023-03-05T15:25:24.215Z,100841.19
2023-03-05T15:27:51.397Z,100835.13
2023-03-05T15:30:28.635Z,100837.25
2023-03-05T15:32:56.979Z,100832.84
2023-03-05T15:35:25.120Z,100825.31
2023-03-05T15:37:53.536Z,100820.69
2023-03-05T15:40:21.740Z,100822.94
2023-03-05T15:42:49.313Z,100813.84
2023-03-05T15:45:16.605Z,100812.59
2023-03-05T15:47:43.673Z,100809.50
2023-03-05T15:50:11.135Z,100804.81
2023-03-05T15:52:38.091Z,100805.38
2023-03-05T15:55:05.430Z,100809.50
2023-03-05T15:57:36.347Z,100799.72
2023-03-05T16:00:06.396Z,100796.75
2023-03-05T16:02:37.247Z,100795.66
2023-03-05T16:05:04.844Z,100792.53
2023-03-05T16:07:33.413Z,100793.22
2023-03-05T16:10:00.433Z,100786.84
2023-03-05T16:12:33.620Z,100787.16
2023-03-05T16:15:00.595Z,100784.47
2023-03-05T16:17:27.486Z,100776.66
2023-03-05T16:19:56.027Z,100777.81
2023-03-05T16:22:23.914Z,100774.69
2023-03-05T16:24:50.807Z,100769.31
2023-03-05T16:27:17.714Z,100775.25
2023-03-05T16:29:46.090Z,100783.47
2023-03-05T16:32:13.223Z,100775.00
2023-03-05T16:34:40.245Z,100776.25
2023-03-05T16:37:07.207Z,100773.88
2023-03-05T16:39:34.622Z,100769.06
2023-03-05T16:42:01.834Z,100770.22
2023-03-05T16:44:28.738Z,100779.56
2023-03-05T16:46:56.611Z,100775.88
2023-03-05T16:49:24.165Z,100771.34
2023-03-05T16:51:51.112Z,100781.00
2023-03-05T16:54:18.172Z,100781.56
2023-03-05T16:56:45.454Z,100787.22
2023-03-05T16:59:12.338Z,100790.34
2023-03-05T17:01:39.292Z,100787.50
2023-03-05T17:04:06.441Z,100788.34
2023-03-05T17:06:34.859Z,100776.75
2023-03-05T17:09:02.973Z,100785.84
2023-03-05T17:11:33.234Z,100786.09
2023-03-05T17:14:00.348Z,100789.78
2023-03-05T17:16:27.684Z,100781.31
2023-03-05T17:18:54.741Z,100793.00
2023-03-05T17:21:22.193Z,100790.31
2023-03-05T17:23:49.427Z,100790.56
2023-03-05T17:26:19.193Z,100788.47
2023-03-05T17:28:46.924Z,100778.97
2023-03-05T17:31:14.674Z,100785.16
2023-03-05T17:33:42.359Z,100792.53
2023-03-05T17:36:18.096Z,100794.78
2023-03-05T17:38:47.719Z,100797.72
2023-03-05T17:41:16.191Z,100793.63
2023-03-05T17:43:43.362Z,100787.38
2023-03-05T17:46:10.939Z,100788.50
2023-03-05T17:48:39.367Z,100791.88
2023-03-05T17:51:08.010Z,100785.34
2023-03-05T17:53:36.074Z,100787.06
2023-03-05T17:56:07.127Z,100789.00
2023-03-05T17:58:34.115Z,100788.31
2023-03-05T18:01:01.124Z,100785.31
2023-03-05T18:03:28.166Z,100781.50
2023-03-05T18:05:55.044Z,100787.00
2023-03-05T18:08:22.418Z,100782.91
2023-03-05T18:10:49.348Z,100784.00
2023-03-05T18:13:16.324Z,100783.56
2023-03-05T18:15:47.766Z,100788.94
2023-03-05T18:18:18.763Z,100789.91
2023-03-05T18:20:45.810Z,100793.00
2023-03-05T18:23:13.157Z,100801.03
2023-03-05T18:25:40.630Z,100803.19
2023-03-05T18:28:10.194Z,100799.28
2023-03-05T18:30:37.693Z,100800.38
2023-03-05T18:33:05.599Z,100799.81
2023-03-05T18:35:33.747Z,100800.31
2023-03-05T18:38:03.351Z,100800.59
2023-03-05T18:40:34.148Z,100799.97
2023-03-05T18:43:02.771Z,100804.31
2023-03-05T18:45:30.272Z,100803.84
2023-03-05T18:47:57.609Z,100800.47
2023-03-05T18:50:27.797Z,100814.66
2023-03-05T18:52:54.901Z,100811.72
2023-03-05T18:55:25.313Z,100802.25
2023-03-05T18:57:53.321Z,100806.75
2023-03-05T19:00:26.705Z,100801.25
2023-03-05T19:02:54.948Z,100802.88
2023-03-05T19:05:22.601Z,100805.13
2023-03-05T19:07:50.236Z,100805.69
2023-03-05T19:10:18.112Z,100802.03
2023-03-05T19:13:06.220Z,100805.94
2023-03-05T19:15:33.909Z,100798.91
2023-03-05T19:18:00.962Z,100801.81
2023-03-05T19:20:28.705Z,100802.09
2023-03-05T19:22:56.001Z,100796.72
2023-03-05T19:25:26.741Z,100787.84
2023-03-05T19:27:53.704Z,100789.09
2023-03-05T19:30:20.813Z,100796.66
2023-03-05T19:32:47.796Z,100793.13
2023-03-05T19:35:16.319Z,100790.56
2023-03-05T19:37:45.944Z,100792.53
2023-03-05T19:40:14.792Z,100789.97
2023-03-05T19:42:41.802Z,100794.47
2023-03-05T19:45:09.322Z,100796.56
2023-03-05T19:47:36.448Z,100785.97
2023-03-05T19:50:05.455Z,100791.47
2023-03-05T19:52:32.500Z,100795.25
2023-03-05T19:55:00.257Z,100795.38
2023-03-05T19:57:27.268Z,100785.19
2023-03-05T19:59:54.431Z,100795.03
2023-03-05T20:02:22.053Z,100800.78
2023-03-05T20:04:49.986Z,100799.06
2023-03-05T20:07:17.084Z,100788.63
2023-03-05T20:09:44.029Z,100793.59
2023-03-05T20:12:11.087Z,100796.91
2023-03-05T20:14:38.051Z,100789.59
2023-03-05T20:17:05.018Z,100800.56
2023-03-05T20:19:32.365Z,100790.22
2023-03-05T20:21:59.280Z,100788.91
2023-03-05T20:24:26.283Z,100794.38
2023-03-05T20:26:53.186Z,100795.34
2023-03-05T20:29:20.259Z,100789.38
2023-03-05T20:31:50.433Z,100789.38
2023-03-05T20:34:19.586Z,100780.66
2023-03-05T20:36:46.736Z,100774.09
2023-03-05T20:39:13.896Z,100775.91
2023-03-05T20:41:41.280Z,100781.38
2023-03-05T20:44:11.485Z,100772.63
2023-03-05T20:46:49.587Z,100775.31
2023-03-05T20:49:17.001Z,100774.81
2023-03-05T20:51:43.914Z,100780.66
2023-03-05T20:54:15.547Z,100777.13
2023-03-05T20:56:43.106Z,100777.50
2023-03-05T20:59:11.079Z,100770.22
2023-03-05T21:01:40.244Z,100775.31
2023-03-05T21:04:07.989Z,100770.72
2023-03-05T21:06:35.696Z,100777.16
2023-03-05T21:09:03.105Z,100779.94
2023-03-05T21:11:30.646Z,100777.53
2023-03-05T21:13:57.721Z,100771.44
2023-03-05T21:16:27.601Z,100765.72
2023-03-05T21:18:56.158Z,100763.19
2023-03-05T21:21:23.781Z,100765.13
2023-03-05T21:23:50.742Z,100761.97
2023-03-05T21:26:18.255Z,100762.81
2023-03-05T21:28:45.220Z,100771.94
2023-03-05T21:31:17.882Z,100764.63
2023-03-05T21:33:45.505Z,100770.22
2023-03-05T21:36:12.588Z,100757.81
2023-03-05T21:38:42.943Z,100763.41
2023-03-05T21:41:10.576Z,100754.66
2023-03-05T21:43:37.532Z,100758.78
2023-03-05T21:46:04.651Z,100765.00
2023-03-05T21:48:32.010Z,100771.41
2023-03-05T21:50:59.345Z,100773.38
2023-03-05T21:53:26.687Z,100757.56
2023-03-05T21:56:11.095Z,100755.84
2023-03-05T21:58:38.126Z,100753.44
2023-03-05T22:01:05.249Z,100748.16
2023-03-05T22:03:32.683Z,100745.63
2023-03-05T22:05:59.741Z,100748.53
2023-03-05T22:08:29.090Z,100741.34
2023-03-05T22:10:56.324Z,100737.59
2023-03-05T22:13:23.358Z,100740.25
2023-03-05T22:15:53.743Z,100735.66
2023-03-05T22:18:26.557Z,100744.38
2023-03-05T22:20:55.313Z,100735.41
2023-03-05T22:23:24.641Z,100730.91
2023-03-05T22:26:08.009Z,100732.63
2023-03-05T22:28:36.011Z,100736.38
2023-03-05T22:31:03.158Z,100734.56
2023-03-05T22:33:30.723Z,100726.66
2023-03-05T22:35:58.515Z,100738.19
2023-03-05T22:38:25.772Z,100739.03
2023-03-05T22:40:53.590Z,100734.91
2023-03-05T22:43:21.028Z,100735.88
2023-03-05T22:45:48.143Z,100741.22
2023-03-05T22:48:15.620Z,100730.78
2023-03-05T22:50:44.111Z,100737.09
2023-03-05T22:53:12.684Z,100733.22
2023-03-05T22:55:42.894Z,100716.53
2023-03-05T22:58:10.373Z,100706.97
2023-03-05T23:00:37.784Z,100713.16
2023-03-05T23:03:06.532Z,100719.56
2023-03-05T23:05:34.687Z,100715.22
2023-03-05T23:08:01.730Z,100713.72
2023-03-05T23:10:31.456Z,100712.06
2023-03-05T23:13:00.703Z,100704.03
2023-03-05T23:15:33.784Z,100704.25
2023-03-05T23:18:01.420Z,100702.78
2023-03-05T23:20:31.957Z,100701.59
2023-03-05T23:22:59.282Z,100700.47
2023-03-05T23:25:29.228Z,100695.50
2023-03-05T23:27:58.192Z,100698.41
2023-03-05T23:30:27.492Z,100694.25
2023-03-05T23:33:03.182Z,100680.78
2023-03-05T23:35:41.670Z,100687.09
2023-03-05T23:38:13.241Z,100675.44
2023-03-05T23:40:43.542Z,100679.31
2023-03-05T23:43:11.078Z,100675.81
2023-03-05T23:45:38.422Z,100676.06
2023-03-05T23:48:05.908Z,100679.69
2023-03-05T23:50:35.778Z,100677.38
2023-03-05T23:53:05.117Z,100686.16
2023-03-05T23:55:44.273Z,100679.13
2023-03-05T23:58:11.819Z,100672.31
